sensor_id;sensor_type;location;lat;lon;timestamp;temperature;humidity
40848;DHT22;26570;50.962;5.340;2022-09-09T00:02:28;16.10;99.90
40848;DHT22;26570;50.962;5.340;2022-09-09T00:05:52;16.20;99.90
40848;DHT22;26570;50.962;5.340;2022-09-09T00:08:53;16.20;99.90
40848;DHT22;26570;50.962;5.340;2022-09-09T00:18:00;16.40;99.90
40848;DHT22;26570;50.962;5.340;2022-09-09T00:23:55;16.20;99.90
40848;DHT22;26570;50.962;5.340;2022-09-09T00:26:45;16.20;99.90
40848;DHT22;26570;50.962;5.340;2022-09-09T00:29:47;16.10;99.90
40848;DHT22;26570;50.962;5.340;2022-09-09T00:32:38;16.10;99.90
40848;DHT22;26570;50.962;5.340;2022-09-09T00:35:28;16.00;99.90
40848;DHT22;26570;50.962;5.340;2022-09-09T00:44:25;15.90;99.90
40848;DHT22;26570;50.962;5.340;2022-09-09T00:47:50;15.80;99.90
40848;DHT22;26570;50.962;5.340;2022-09-09T00:50:57;15.80;99.90
40848;DHT22;26570;50.962;5.340;2022-09-09T00:54:08;15.80;99.90
40848;DHT22;26570;50.962;5.340;2022-09-09T00:57:26;15.70;99.90
40848;DHT22;26570;50.962;5.340;2022-09-09T01:00:27;15.60;99.90
40848;DHT22;26570;50.962;5.340;2022-09-09T01:12:25;15.60;99.90
40848;DHT22;26570;50.962;5.340;2022-09-09T01:15:17;15.50;99.90
40848;DHT22;26570;50.962;5.340;2022-09-09T01:18:04;15.50;99.90
40848;DHT22;26570;50.962;5.340;2022-09-09T01:24:20;15.40;99.90
40848;DHT22;26570;50.962;5.340;2022-09-09T01:27:08;15.30;99.90
40848;DHT22;26570;50.962;5.340;2022-09-09T01:29:54;15.40;99.90
40848;DHT22;26570;50.962;5.340;2022-09-09T01:32:45;15.30;99.90
40848;DHT22;26570;50.962;5.340;2022-09-09T01:38:30;15.30;99.90
40848;DHT22;26570;50.962;5.340;2022-09-09T01:41:16;15.40;99.90
40848;DHT22;26570;50.962;5.340;2022-09-09T01:44:01;15.50;99.90
40848;DHT22;26570;50.962;5.340;2022-09-09T01:46:46;15.50;99.90
40848;DHT22;26570;50.962;5.340;2022-09-09T01:49:32;15.50;99.90
40848;DHT22;26570;50.962;5.340;2022-09-09T01:52:20;15.50;99.90
40848;DHT22;26570;50.962;5.340;2022-09-09T01:55:05;15.60;99.90
40848;DHT22;26570;50.962;5.340;2022-09-09T01:58:28;15.50;99.90
40848;DHT22;26570;50.962;5.340;2022-09-09T02:01:36;15.60;99.90
40848;DHT22;26570;50.962;5.340;2022-09-09T02:04:38;15.60;99.90
40848;DHT22;26570;50.962;5.340;2022-09-09T02:10:32;15.50;99.90
40848;DHT22;26570;50.962;5.340;2022-09-09T02:13:20;15.60;99.90
40848;DHT22;26570;50.962;5.340;2022-09-09T02:16:26;15.60;99.90
40848;DHT22;26570;50.962;5.340;2022-09-09T02:22:11;16.00;99.90
40848;DHT22;26570;50.962;5.340;2022-09-09T02:24:58;15.90;99.90
40848;DHT22;26570;50.962;5.340;2022-09-09T02:27:46;15.80;99.90
40848;DHT22;26570;50.962;5.340;2022-09-09T02:30:34;15.90;99.90
40848;DHT22;26570;50.962;5.340;2022-09-09T02:33:23;15.90;99.90
40848;DHT22;26570;50.962;5.340;2022-09-09T02:36:10;15.90;99.90
40848;DHT22;26570;50.962;5.340;2022-09-09T02:38:56;16.00;99.90
40848;DHT22;26570;50.962;5.340;2022-09-09T02:41:42;15.90;99.90
40848;DHT22;26570;50.962;5.340;2022-09-09T02:44:27;15.90;99.90
40848;DHT22;26570;50.962;5.340;2022-09-09T02:47:47;16.00;99.90
40848;DHT22;26570;50.962;5.340;2022-09-09T02:50:40;16.00;99.90
40848;DHT22;26570;50.962;5.340;2022-09-09T02:53:32;16.10;99.90
40848;DHT22;26570;50.962;5.340;2022-09-09T02:56:21;16.20;99.90
40848;DHT22;26570;50.962;5.340;2022-09-09T02:59:08;16.20;99.90
40848;DHT22;26570;50.962;5.340;2022-09-09T03:01:54;16.30;99.90
40848;DHT22;26570;50.962;5.340;2022-09-09T03:04:40;16.30;99.90
40848;DHT22;26570;50.962;5.340;2022-09-09T03:07:27;16.20;99.90
40848;DHT22;26570;50.962;5.340;2022-09-09T03:10:13;16.20;99.90
40848;DHT22;26570;50.962;5.340;2022-09-09T03:12:58;16.10;99.90
40848;DHT22;26570;50.962;5.340;2022-09-09T03:15:43;16.10;99.90
40848;DHT22;26570;50.962;5.340;2022-09-09T03:18:28;16.20;99.90
40848;DHT22;26570;50.962;5.340;2022-09-09T03:21:13;16.20;99.90
40848;DHT22;26570;50.962;5.340;2022-09-09T03:23:58;16.20;99.90
40848;DHT22;26570;50.962;5.340;2022-09-09T03:26:43;16.10;99.90
40848;DHT22;26570;50.962;5.340;2022-09-09T03:29:31;16.10;99.90
40848;DHT22;26570;50.962;5.340;2022-09-09T03:32:18;16.20;99.90
40848;DHT22;26570;50.962;5.340;2022-09-09T03:35:04;16.30;99.90
40848;DHT22;26570;50.962;5.340;2022-09-09T03:37:50;16.40;99.90
40848;DHT22;26570;50.962;5.340;2022-09-09T03:40:35;16.50;99.90
40848;DHT22;26570;50.962;5.340;2022-09-09T03:43:21;16.40;99.90
40848;DHT22;26570;50.962;5.340;2022-09-09T03:46:06;16.40;99.90
40848;DHT22;26570;50.962;5.340;2022-09-09T03:48:51;16.40;99.90
40848;DHT22;26570;50.962;5.340;2022-09-09T03:51:37;16.50;99.90
40848;DHT22;26570;50.962;5.340;2022-09-09T03:54:23;16.50;99.90
40848;DHT22;26570;50.962;5.340;2022-09-09T03:57:12;16.50;99.90
40848;DHT22;26570;50.962;5.340;2022-09-09T03:59:59;16.60;99.90
40848;DHT22;26570;50.962;5.340;2022-09-09T04:02:46;16.50;99.90
40848;DHT22;26570;50.962;5.340;2022-09-09T04:05:31;16.60;99.90
40848;DHT22;26570;50.962;5.340;2022-09-09T04:08:19;16.60;99.90
40848;DHT22;26570;50.962;5.340;2022-09-09T04:11:05;16.70;99.90
40848;DHT22;26570;50.962;5.340;2022-09-09T04:13:50;16.60;99.90
40848;DHT22;26570;50.962;5.340;2022-09-09T04:16:35;16.40;99.90
40848;DHT22;26570;50.962;5.340;2022-09-09T04:19:21;16.40;99.90
40848;DHT22;26570;50.962;5.340;2022-09-09T04:22:07;16.40;99.90
40848;DHT22;26570;50.962;5.340;2022-09-09T04:24:52;16.50;99.90
40848;DHT22;26570;50.962;5.340;2022-09-09T04:27:38;16.30;99.90
40848;DHT22;26570;50.962;5.340;2022-09-09T04:30:24;16.30;99.90
40848;DHT22;26570;50.962;5.340;2022-09-09T04:33:11;16.40;99.90
40848;DHT22;26570;50.962;5.340;2022-09-09T04:35:56;16.30;99.90
40848;DHT22;26570;50.962;5.340;2022-09-09T04:38:42;16.40;99.90
40848;DHT22;26570;50.962;5.340;2022-09-09T04:41:29;16.30;99.90
40848;DHT22;26570;50.962;5.340;2022-09-09T04:44:16;16.30;99.90
40848;DHT22;26570;50.962;5.340;2022-09-09T04:47:01;16.30;99.90
40848;DHT22;26570;50.962;5.340;2022-09-09T04:49:46;16.20;99.90
40848;DHT22;26570;50.962;5.340;2022-09-09T04:52:34;16.20;99.90
40848;DHT22;26570;50.962;5.340;2022-09-09T04:55:20;16.30;99.90
40848;DHT22;26570;50.962;5.340;2022-09-09T04:58:06;16.20;99.90
40848;DHT22;26570;50.962;5.340;2022-09-09T05:00:51;16.30;99.90
40848;DHT22;26570;50.962;5.340;2022-09-09T05:03:37;16.20;99.90
40848;DHT22;26570;50.962;5.340;2022-09-09T05:06:22;16.30;99.90
40848;DHT22;26570;50.962;5.340;2022-09-09T05:09:08;16.30;99.90
40848;DHT22;26570;50.962;5.340;2022-09-09T05:11:53;16.30;99.90
40848;DHT22;26570;50.962;5.340;2022-09-09T05:14:38;16.30;99.90
40848;DHT22;26570;50.962;5.340;2022-09-09T05:17:23;16.30;99.90
40848;DHT22;26570;50.962;5.340;2022-09-09T05:20:11;16.30;99.90
40848;DHT22;26570;50.962;5.340;2022-09-09T05:22:57;16.20;99.90
40848;DHT22;26570;50.962;5.340;2022-09-09T05:25:41;16.10;99.90
40848;DHT22;26570;50.962;5.340;2022-09-09T05:28:27;16.10;99.90
40848;DHT22;26570;50.962;5.340;2022-09-09T05:31:21;16.10;99.90
40848;DHT22;26570;50.962;5.340;2022-09-09T05:34:09;16.10;99.90
40848;DHT22;26570;50.962;5.340;2022-09-09T05:36:54;16.20;99.90
40848;DHT22;26570;50.962;5.340;2022-09-09T05:39:38;16.30;99.90
40848;DHT22;26570;50.962;5.340;2022-09-09T05:42:23;16.30;99.90
40848;DHT22;26570;50.962;5.340;2022-09-09T05:45:08;16.40;99.90
40848;DHT22;26570;50.962;5.340;2022-09-09T05:47:53;16.50;99.90
40848;DHT22;26570;50.962;5.340;2022-09-09T05:50:38;16.50;99.90
40848;DHT22;26570;50.962;5.340;2022-09-09T05:53:23;16.50;99.90
40848;DHT22;26570;50.962;5.340;2022-09-09T05:58:55;16.50;99.90
40848;DHT22;26570;50.962;5.340;2022-09-09T06:01:40;16.50;99.90
40848;DHT22;26570;50.962;5.340;2022-09-09T06:04:26;16.60;99.90
40848;DHT22;26570;50.962;5.340;2022-09-09T06:07:11;16.70;99.90
40848;DHT22;26570;50.962;5.340;2022-09-09T06:09:55;16.90;99.90
40848;DHT22;26570;50.962;5.340;2022-09-09T06:12:40;16.80;99.90
40848;DHT22;26570;50.962;5.340;2022-09-09T06:15:25;17.00;99.90
40848;DHT22;26570;50.962;5.340;2022-09-09T06:18:11;17.10;99.90
40848;DHT22;26570;50.962;5.340;2022-09-09T06:21:00;17.10;99.90
40848;DHT22;26570;50.962;5.340;2022-09-09T06:23:46;17.20;99.90
40848;DHT22;26570;50.962;5.340;2022-09-09T06:26:34;17.30;99.90
40848;DHT22;26570;50.962;5.340;2022-09-09T06:29:19;17.30;99.90
40848;DHT22;26570;50.962;5.340;2022-09-09T06:32:04;17.30;99.90
40848;DHT22;26570;50.962;5.340;2022-09-09T06:34:49;17.50;99.90
40848;DHT22;26570;50.962;5.340;2022-09-09T06:37:34;17.60;99.90
40848;DHT22;26570;50.962;5.340;2022-09-09T06:40:19;18.20;99.90
40848;DHT22;26570;50.962;5.340;2022-09-09T06:43:04;19.60;99.90
40848;DHT22;26570;50.962;5.340;2022-09-09T06:46:16;20.90;99.90
40848;DHT22;26570;50.962;5.340;2022-09-09T06:49:01;21.80;99.90
40848;DHT22;26570;50.962;5.340;2022-09-09T06:51:46;22.70;99.90
40848;DHT22;26570;50.962;5.340;2022-09-09T06:54:31;23.30;99.90
40848;DHT22;26570;50.962;5.340;2022-09-09T06:57:16;23.00;99.90
40848;DHT22;26570;50.962;5.340;2022-09-09T07:00:01;22.60;99.90
40848;DHT22;26570;50.962;5.340;2022-09-09T07:02:46;22.00;99.90
40848;DHT22;26570;50.962;5.340;2022-09-09T07:05:30;21.10;99.90
40848;DHT22;26570;50.962;5.340;2022-09-09T07:08:15;20.40;99.90
40848;DHT22;26570;50.962;5.340;2022-09-09T07:11:04;19.70;99.90
40848;DHT22;26570;50.962;5.340;2022-09-09T07:13:49;19.50;99.90
40848;DHT22;26570;50.962;5.340;2022-09-09T07:16:34;19.30;99.90
40848;DHT22;26570;50.962;5.340;2022-09-09T07:19:23;19.20;99.90
40848;DHT22;26570;50.962;5.340;2022-09-09T07:22:08;19.00;99.90
40848;DHT22;26570;50.962;5.340;2022-09-09T07:24:53;18.90;99.90
40848;DHT22;26570;50.962;5.340;2022-09-09T07:27:38;18.80;99.90
40848;DHT22;26570;50.962;5.340;2022-09-09T07:30:23;18.90;99.90
40848;DHT22;26570;50.962;5.340;2022-09-09T07:33:08;19.50;99.90
40848;DHT22;26570;50.962;5.340;2022-09-09T07:35:53;19.60;99.90
40848;DHT22;26570;50.962;5.340;2022-09-09T07:38:44;19.40;99.90
40848;DHT22;26570;50.962;5.340;2022-09-09T07:41:38;19.40;99.90
40848;DHT22;26570;50.962;5.340;2022-09-09T07:44:25;20.10;99.90
40848;DHT22;26570;50.962;5.340;2022-09-09T07:47:14;20.20;99.90
40848;DHT22;26570;50.962;5.340;2022-09-09T07:50:02;19.90;99.90
40848;DHT22;26570;50.962;5.340;2022-09-09T07:52:47;19.60;99.90
40848;DHT22;26570;50.962;5.340;2022-09-09T07:55:32;19.70;99.90
40848;DHT22;26570;50.962;5.340;2022-09-09T07:58:17;19.70;99.90
40848;DHT22;26570;50.962;5.340;2022-09-09T08:01:10;19.70;99.90
40848;DHT22;26570;50.962;5.340;2022-09-09T08:03:56;19.50;99.90
40848;DHT22;26570;50.962;5.340;2022-09-09T08:06:47;19.40;99.90
40848;DHT22;26570;50.962;5.340;2022-09-09T08:09:42;19.40;99.90
40848;DHT22;26570;50.962;5.340;2022-09-09T08:12:38;19.10;99.90
40848;DHT22;26570;50.962;5.340;2022-09-09T08:15:23;19.10;99.90
40848;DHT22;26570;50.962;5.340;2022-09-09T08:18:17;18.90;99.90
40848;DHT22;26570;50.962;5.340;2022-09-09T08:21:06;18.80;99.90
40848;DHT22;26570;50.962;5.340;2022-09-09T08:23:58;18.70;99.90
40848;DHT22;26570;50.962;5.340;2022-09-09T08:26:46;18.60;99.90
40848;DHT22;26570;50.962;5.340;2022-09-09T08:29:33;18.60;99.90
40848;DHT22;26570;50.962;5.340;2022-09-09T08:32:18;18.60;99.90
40848;DHT22;26570;50.962;5.340;2022-09-09T08:35:04;18.60;99.90
40848;DHT22;26570;50.962;5.340;2022-09-09T08:37:54;18.70;99.90
40848;DHT22;26570;50.962;5.340;2022-09-09T08:40:42;18.60;99.90
40848;DHT22;26570;50.962;5.340;2022-09-09T08:43:31;18.70;99.90
40848;DHT22;26570;50.962;5.340;2022-09-09T08:46:27;18.60;99.90
40848;DHT22;26570;50.962;5.340;2022-09-09T08:49:48;18.60;99.90
40848;DHT22;26570;50.962;5.340;2022-09-09T08:53:34;18.70;99.90
40848;DHT22;26570;50.962;5.340;2022-09-09T08:56:26;18.60;99.90
40848;DHT22;26570;50.962;5.340;2022-09-09T08:59:20;18.50;99.90
40848;DHT22;26570;50.962;5.340;2022-09-09T09:02:47;18.40;99.90
40848;DHT22;26570;50.962;5.340;2022-09-09T09:07:04;18.10;99.90
40848;DHT22;26570;50.962;5.340;2022-09-09T09:10:43;18.10;99.90
40848;DHT22;26570;50.962;5.340;2022-09-09T09:17:02;18.20;99.90
40848;DHT22;26570;50.962;5.340;2022-09-09T09:20:39;18.30;99.90
40848;DHT22;26570;50.962;5.340;2022-09-09T09:23:31;18.30;99.90
40848;DHT22;26570;50.962;5.340;2022-09-09T09:26:23;18.20;99.90
40848;DHT22;26570;50.962;5.340;2022-09-09T09:29:29;18.20;99.90
40848;DHT22;26570;50.962;5.340;2022-09-09T09:32:19;18.30;99.90
40848;DHT22;26570;50.962;5.340;2022-09-09T09:35:25;18.50;99.90
40848;DHT22;26570;50.962;5.340;2022-09-09T09:38:26;18.50;99.90
40848;DHT22;26570;50.962;5.340;2022-09-09T09:41:12;18.60;99.90
40848;DHT22;26570;50.962;5.340;2022-09-09T09:44:03;18.60;99.90
40848;DHT22;26570;50.962;5.340;2022-09-09T09:47:05;18.80;99.90
40848;DHT22;26570;50.962;5.340;2022-09-09T09:49:59;18.90;99.90
40848;DHT22;26570;50.962;5.340;2022-09-09T09:52:58;19.00;99.90
40848;DHT22;26570;50.962;5.340;2022-09-09T10:02:40;19.30;99.90
40848;DHT22;26570;50.962;5.340;2022-09-09T10:05:50;19.20;99.90
40848;DHT22;26570;50.962;5.340;2022-09-09T10:09:30;19.20;99.90
40848;DHT22;26570;50.962;5.340;2022-09-09T10:13:02;19.10;99.90
40848;DHT22;26570;50.962;5.340;2022-09-09T10:16:13;18.80;99.90
40848;DHT22;26570;50.962;5.340;2022-09-09T10:19:36;18.70;99.90
40848;DHT22;26570;50.962;5.340;2022-09-09T10:22:50;18.50;99.90
40848;DHT22;26570;50.962;5.340;2022-09-09T10:25:56;18.40;99.90
40848;DHT22;26570;50.962;5.340;2022-09-09T10:35:12;17.90;99.90
40848;DHT22;26570;50.962;5.340;2022-09-09T10:47:30;17.80;99.90
40848;DHT22;26570;50.962;5.340;2022-09-09T10:53:35;17.50;99.90
40848;DHT22;26570;50.962;5.340;2022-09-09T10:56:22;17.80;99.90
40848;DHT22;26570;50.962;5.340;2022-09-09T10:59:17;18.00;99.90
40848;DHT22;26570;50.962;5.340;2022-09-09T11:02:17;18.20;99.90
40848;DHT22;26570;50.962;5.340;2022-09-09T11:05:06;18.20;99.90
40848;DHT22;26570;50.962;5.340;2022-09-09T11:08:19;18.40;99.90
40848;DHT22;26570;50.962;5.340;2022-09-09T11:11:11;18.60;99.90
40848;DHT22;26570;50.962;5.340;2022-09-09T11:16:53;19.00;99.90
40848;DHT22;26570;50.962;5.340;2022-09-09T11:19:43;19.10;99.90
40848;DHT22;26570;50.962;5.340;2022-09-09T11:22:39;19.10;99.90
40848;DHT22;26570;50.962;5.340;2022-09-09T11:25:40;19.10;99.90
40848;DHT22;26570;50.962;5.340;2022-09-09T11:35:10;19.50;99.90
40848;DHT22;26570;50.962;5.340;2022-09-09T11:41:11;19.60;99.90
40848;DHT22;26570;50.962;5.340;2022-09-09T11:43:58;19.80;99.90
40848;DHT22;26570;50.962;5.340;2022-09-09T11:46:45;19.90;99.90
40848;DHT22;26570;50.962;5.340;2022-09-09T11:49:41;20.00;99.90
40848;DHT22;26570;50.962;5.340;2022-09-09T11:52:41;20.10;99.90
40848;DHT22;26570;50.962;5.340;2022-09-09T11:55:30;20.20;99.90
40848;DHT22;26570;50.962;5.340;2022-09-09T11:58:18;20.10;99.90
40848;DHT22;26570;50.962;5.340;2022-09-09T12:07:45;19.80;99.90
40848;DHT22;26570;50.962;5.340;2022-09-09T12:10:36;19.70;99.90
40848;DHT22;26570;50.962;5.340;2022-09-09T12:13:24;19.60;99.90
40848;DHT22;26570;50.962;5.340;2022-09-09T12:16:32;19.30;99.90
40848;DHT22;26570;50.962;5.340;2022-09-09T12:19:21;19.30;99.90
40848;DHT22;26570;50.962;5.340;2022-09-09T12:22:38;19.10;99.90
40848;DHT22;26570;50.962;5.340;2022-09-09T12:29:10;19.30;99.90
40848;DHT22;26570;50.962;5.340;2022-09-09T12:32:01;19.00;99.90
40848;DHT22;26570;50.962;5.340;2022-09-09T12:34:58;19.00;99.90
40848;DHT22;26570;50.962;5.340;2022-09-09T12:37:58;19.00;99.90
40848;DHT22;26570;50.962;5.340;2022-09-09T12:40:54;19.20;99.90
40848;DHT22;26570;50.962;5.340;2022-09-09T12:43:40;19.60;99.90
40848;DHT22;26570;50.962;5.340;2022-09-09T12:46:35;20.00;99.90
40848;DHT22;26570;50.962;5.340;2022-09-09T12:49:34;20.30;99.90
40848;DHT22;26570;50.962;5.340;2022-09-09T12:52:29;20.60;99.90
40848;DHT22;26570;50.962;5.340;2022-09-09T12:55:21;21.00;99.90
40848;DHT22;26570;50.962;5.340;2022-09-09T12:58:13;21.30;99.90
40848;DHT22;26570;50.962;5.340;2022-09-09T13:01:02;21.40;99.90
40848;DHT22;26570;50.962;5.340;2022-09-09T13:03:49;21.60;99.90
40848;DHT22;26570;50.962;5.340;2022-09-09T13:06:34;21.50;99.90
40848;DHT22;26570;50.962;5.340;2022-09-09T13:09:21;21.40;99.90
40848;DHT22;26570;50.962;5.340;2022-09-09T13:12:11;21.50;99.90
40848;DHT22;26570;50.962;5.340;2022-09-09T13:14:58;21.40;99.90
40848;DHT22;26570;50.962;5.340;2022-09-09T13:17:56;21.60;99.90
40848;DHT22;26570;50.962;5.340;2022-09-09T13:20:47;21.70;99.90
40848;DHT22;26570;50.962;5.340;2022-09-09T13:23:34;21.30;99.90
40848;DHT22;26570;50.962;5.340;2022-09-09T13:26:34;21.20;99.90
40848;DHT22;26570;50.962;5.340;2022-09-09T13:29:20;21.00;99.90
40848;DHT22;26570;50.962;5.340;2022-09-09T13:32:18;21.00;99.90
40848;DHT22;26570;50.962;5.340;2022-09-09T13:35:03;21.10;99.90
40848;DHT22;26570;50.962;5.340;2022-09-09T13:37:48;21.10;99.90
40848;DHT22;26570;50.962;5.340;2022-09-09T13:40:34;21.30;99.90
40848;DHT22;26570;50.962;5.340;2022-09-09T13:43:23;21.70;99.90
40848;DHT22;26570;50.962;5.340;2022-09-09T13:46:31;21.70;99.90
40848;DHT22;26570;50.962;5.340;2022-09-09T13:49:22;21.60;99.90
40848;DHT22;26570;50.962;5.340;2022-09-09T13:52:13;21.80;99.90
40848;DHT22;26570;50.962;5.340;2022-09-09T13:55:00;21.70;99.90
40848;DHT22;26570;50.962;5.340;2022-09-09T13:57:57;21.70;99.90
40848;DHT22;26570;50.962;5.340;2022-09-09T14:00:42;21.70;99.90
40848;DHT22;26570;50.962;5.340;2022-09-09T14:03:28;21.70;99.90
40848;DHT22;26570;50.962;5.340;2022-09-09T14:06:14;21.70;99.90
40848;DHT22;26570;50.962;5.340;2022-09-09T14:08:59;21.70;99.90
40848;DHT22;26570;50.962;5.340;2022-09-09T14:11:45;21.40;99.90
40848;DHT22;26570;50.962;5.340;2022-09-09T14:14:32;21.40;99.90
40848;DHT22;26570;50.962;5.340;2022-09-09T14:17:17;21.20;99.90
40848;DHT22;26570;50.962;5.340;2022-09-09T14:20:06;21.30;99.90
40848;DHT22;26570;50.962;5.340;2022-09-09T14:22:55;21.30;99.90
40848;DHT22;26570;50.962;5.340;2022-09-09T14:25:43;21.40;99.90
40848;DHT22;26570;50.962;5.340;2022-09-09T14:28:28;21.30;99.90
40848;DHT22;26570;50.962;5.340;2022-09-09T14:31:14;21.40;99.90
40848;DHT22;26570;50.962;5.340;2022-09-09T14:33:59;21.50;99.90
40848;DHT22;26570;50.962;5.340;2022-09-09T14:36:45;21.50;99.90
40848;DHT22;26570;50.962;5.340;2022-09-09T14:39:31;21.50;99.90
40848;DHT22;26570;50.962;5.340;2022-09-09T14:46:08;21.70;99.90
40848;DHT22;26570;50.962;5.340;2022-09-09T14:48:53;21.80;99.90
40848;DHT22;26570;50.962;5.340;2022-09-09T14:51:39;22.00;99.90
40848;DHT22;26570;50.962;5.340;2022-09-09T14:54:25;22.20;99.90
40848;DHT22;26570;50.962;5.340;2022-09-09T14:57:11;22.20;99.90
40848;DHT22;26570;50.962;5.340;2022-09-09T14:59:56;22.50;99.90
40848;DHT22;26570;50.962;5.340;2022-09-09T15:02:41;22.50;99.90
40848;DHT22;26570;50.962;5.340;2022-09-09T15:05:26;22.40;99.90
40848;DHT22;26570;50.962;5.340;2022-09-09T15:08:12;22.10;99.90
40848;DHT22;26570;50.962;5.340;2022-09-09T15:11:01;22.20;99.90
40848;DHT22;26570;50.962;5.340;2022-09-09T15:13:47;22.40;99.90
40848;DHT22;26570;50.962;5.340;2022-09-09T15:16:33;22.60;99.90
40848;DHT22;26570;50.962;5.340;2022-09-09T15:19:18;22.70;99.90
40848;DHT22;26570;50.962;5.340;2022-09-09T15:22:07;22.80;99.90
40848;DHT22;26570;50.962;5.340;2022-09-09T15:24:52;22.50;99.90
40848;DHT22;26570;50.962;5.340;2022-09-09T15:27:37;22.30;99.90
40848;DHT22;26570;50.962;5.340;2022-09-09T15:30:24;22.20;99.90
40848;DHT22;26570;50.962;5.340;2022-09-09T15:33:09;22.30;99.90
40848;DHT22;26570;50.962;5.340;2022-09-09T15:35:54;22.20;99.90
40848;DHT22;26570;50.962;5.340;2022-09-09T15:38:40;21.90;99.90
40848;DHT22;26570;50.962;5.340;2022-09-09T15:41:26;22.00;99.90
40848;DHT22;26570;50.962;5.340;2022-09-09T15:44:11;21.80;99.90
40848;DHT22;26570;50.962;5.340;2022-09-09T15:46:57;21.80;99.90
40848;DHT22;26570;50.962;5.340;2022-09-09T15:49:45;21.90;99.90
40848;DHT22;26570;50.962;5.340;2022-09-09T15:52:30;22.30;99.90
40848;DHT22;26570;50.962;5.340;2022-09-09T15:55:15;22.40;99.90
40848;DHT22;26570;50.962;5.340;2022-09-09T15:58:00;22.50;99.90
40848;DHT22;26570;50.962;5.340;2022-09-09T16:00:45;22.60;99.90
40848;DHT22;26570;50.962;5.340;2022-09-09T16:03:53;22.60;99.90
40848;DHT22;26570;50.962;5.340;2022-09-09T16:06:38;22.70;99.90
40848;DHT22;26570;50.962;5.340;2022-09-09T16:09:24;22.70;99.90
40848;DHT22;26570;50.962;5.340;2022-09-09T16:12:10;22.50;99.90
40848;DHT22;26570;50.962;5.340;2022-09-09T16:14:57;22.40;99.90
40848;DHT22;26570;50.962;5.340;2022-09-09T16:17:42;22.20;99.90
40848;DHT22;26570;50.962;5.340;2022-09-09T16:20:28;22.00;99.90
40848;DHT22;26570;50.962;5.340;2022-09-09T16:23:14;21.80;99.90
40848;DHT22;26570;50.962;5.340;2022-09-09T16:26:00;21.80;99.90
40848;DHT22;26570;50.962;5.340;2022-09-09T16:28:46;21.50;99.90
40848;DHT22;26570;50.962;5.340;2022-09-09T16:31:32;21.30;99.90
40848;DHT22;26570;50.962;5.340;2022-09-09T16:34:18;21.00;99.90
40848;DHT22;26570;50.962;5.340;2022-09-09T16:37:03;21.10;99.90
40848;DHT22;26570;50.962;5.340;2022-09-09T16:39:48;21.10;99.90
40848;DHT22;26570;50.962;5.340;2022-09-09T16:42:34;21.20;99.90
40848;DHT22;26570;50.962;5.340;2022-09-09T16:45:20;21.00;99.90
40848;DHT22;26570;50.962;5.340;2022-09-09T16:48:05;20.90;99.90
40848;DHT22;26570;50.962;5.340;2022-09-09T16:50:50;21.00;99.90
40848;DHT22;26570;50.962;5.340;2022-09-09T16:53:35;21.00;99.90
40848;DHT22;26570;50.962;5.340;2022-09-09T16:56:23;21.00;99.90
40848;DHT22;26570;50.962;5.340;2022-09-09T16:59:14;21.00;99.90
40848;DHT22;26570;50.962;5.340;2022-09-09T17:01:59;20.80;99.90
40848;DHT22;26570;50.962;5.340;2022-09-09T17:04:45;20.70;99.90
40848;DHT22;26570;50.962;5.340;2022-09-09T17:07:31;20.60;99.90
40848;DHT22;26570;50.962;5.340;2022-09-09T17:10:17;20.70;99.90
40848;DHT22;26570;50.962;5.340;2022-09-09T17:13:03;20.60;99.90
40848;DHT22;26570;50.962;5.340;2022-09-09T17:15:49;20.50;99.90
40848;DHT22;26570;50.962;5.340;2022-09-09T17:18:35;20.50;99.90
40848;DHT22;26570;50.962;5.340;2022-09-09T17:21:23;20.50;99.90
40848;DHT22;26570;50.962;5.340;2022-09-09T17:24:10;20.40;99.90
40848;DHT22;26570;50.962;5.340;2022-09-09T17:26:57;20.30;99.90
40848;DHT22;26570;50.962;5.340;2022-09-09T17:29:43;20.10;99.90
40848;DHT22;26570;50.962;5.340;2022-09-09T17:32:28;19.90;99.90
40848;DHT22;26570;50.962;5.340;2022-09-09T17:35:13;20.00;99.90
40848;DHT22;26570;50.962;5.340;2022-09-09T17:37:58;20.00;99.90
40848;DHT22;26570;50.962;5.340;2022-09-09T17:40:43;20.00;99.90
40848;DHT22;26570;50.962;5.340;2022-09-09T17:43:29;20.10;99.90
40848;DHT22;26570;50.962;5.340;2022-09-09T17:46:16;20.00;99.90
40848;DHT22;26570;50.962;5.340;2022-09-09T17:49:04;20.00;99.90
40848;DHT22;26570;50.962;5.340;2022-09-09T17:51:51;19.90;99.90
40848;DHT22;26570;50.962;5.340;2022-09-09T17:54:37;19.80;99.90
40848;DHT22;26570;50.962;5.340;2022-09-09T17:57:23;19.80;99.90
40848;DHT22;26570;50.962;5.340;2022-09-09T18:00:10;19.60;99.90
40848;DHT22;26570;50.962;5.340;2022-09-09T18:02:57;19.40;99.90
40848;DHT22;26570;50.962;5.340;2022-09-09T18:05:46;19.40;99.90
40848;DHT22;26570;50.962;5.340;2022-09-09T18:08:33;19.20;99.90
40848;DHT22;26570;50.962;5.340;2022-09-09T18:11:27;19.10;99.90
40848;DHT22;26570;50.962;5.340;2022-09-09T18:14:20;18.90;99.90
40848;DHT22;26570;50.962;5.340;2022-09-09T18:17:09;19.00;99.90
40848;DHT22;26570;50.962;5.340;2022-09-09T18:19:58;18.90;99.90
40848;DHT22;26570;50.962;5.340;2022-09-09T18:22:44;18.80;99.90
40848;DHT22;26570;50.962;5.340;2022-09-09T18:25:31;18.70;99.90
40848;DHT22;26570;50.962;5.340;2022-09-09T18:28:18;18.50;99.90
40848;DHT22;26570;50.962;5.340;2022-09-09T18:31:09;18.50;99.90
40848;DHT22;26570;50.962;5.340;2022-09-09T18:34:10;18.60;99.90
40848;DHT22;26570;50.962;5.340;2022-09-09T18:37:13;18.60;99.90
40848;DHT22;26570;50.962;5.340;2022-09-09T18:40:03;18.50;99.90
40848;DHT22;26570;50.962;5.340;2022-09-09T18:42:48;18.50;99.90
40848;DHT22;26570;50.962;5.340;2022-09-09T18:45:37;18.40;99.90
40848;DHT22;26570;50.962;5.340;2022-09-09T18:48:23;18.30;99.90
40848;DHT22;26570;50.962;5.340;2022-09-09T18:51:10;18.30;99.90
40848;DHT22;26570;50.962;5.340;2022-09-09T18:53:59;18.30;99.90
40848;DHT22;26570;50.962;5.340;2022-09-09T18:56:44;18.30;99.90
40848;DHT22;26570;50.962;5.340;2022-09-09T18:59:30;18.20;99.90
40848;DHT22;26570;50.962;5.340;2022-09-09T19:02:15;18.10;99.90
40848;DHT22;26570;50.962;5.340;2022-09-09T19:05:01;18.10;99.90
40848;DHT22;26570;50.962;5.340;2022-09-09T19:07:47;18.20;99.90
40848;DHT22;26570;50.962;5.340;2022-09-09T19:10:36;18.10;99.90
40848;DHT22;26570;50.962;5.340;2022-09-09T19:13:21;18.10;99.90
40848;DHT22;26570;50.962;5.340;2022-09-09T19:16:11;18.10;99.90
40848;DHT22;26570;50.962;5.340;2022-09-09T19:19:18;18.20;99.90
40848;DHT22;26570;50.962;5.340;2022-09-09T19:22:03;18.00;99.90
40848;DHT22;26570;50.962;5.340;2022-09-09T19:24:53;17.80;99.90
40848;DHT22;26570;50.962;5.340;2022-09-09T19:27:39;17.60;99.90
40848;DHT22;26570;50.962;5.340;2022-09-09T19:30:24;17.70;99.90
40848;DHT22;26570;50.962;5.340;2022-09-09T19:33:10;17.60;99.90